Time;durP1;ratioP1;P1;durP2;ratioP2;P2;SDS_P1;SDS_P2;PMS_P1;PMS_P2;Temp;Humidity;BMP_temperature;BMP_pressure;BME280_temperature;BME280_humidity;BME280_pressure;Samples;Min_cycle;Max_cycle;Signal;HPM_P1;HPM_P2
2023/12/04 00:01:14;;;;;;;0.20;0.10;;;;;;;;;;4959565;28;20046;-84
2023/12/04 00:03:40;;;;;;;0.20;0.10;;;;;;;;;;4978402;28;20079;-83
2023/12/04 00:06:07;;;;;;;3.05;0.63;;;;;;;;;;4974310;28;20046;-83
2023/12/04 00:08:33;;;;;;;0.20;0.10;;;;;;;;;;4977205;28;20150;-84
2023/12/04 00:10:59;;;;;;;0.20;0.10;;;;;;;;;;4987639;23;20142;-81
2023/12/04 00:13:28;;;;;;;0.20;0.20;;;;;;;;;;4922072;29;20050;-83
2023/12/04 00:15:57;;;;;;;0.40;0.40;;;;;;;;;;4912986;28;20456;-81
2023/12/04 00:18:26;;;;;;;0.28;0.25;;;;;;;;;;4910339;29;20479;-83
2023/12/04 00:20:52;;;;;;;0.52;0.45;;;;;;;;;;4958962;28;20225;-82
2023/12/04 00:23:18;;;;;;;0.20;0.17;;;;;;;;;;4910907;29;20816;-82
2023/12/04 00:25:44;;;;;;;0.20;0.10;;;;;;;;;;4910028;28;20043;-81
2023/12/04 00:28:10;;;;;;;0.20;0.10;;;;;;;;;;4921798;29;20288;-83
2023/12/04 00:30:36;;;;;;;0.20;0.10;;;;;;;;;;4930842;28;20763;-83
2023/12/04 00:33:02;;;;;;;0.20;0.10;;;;;;;;;;4933339;28;20039;-84
2023/12/04 00:35:28;;;;;;;0.20;0.10;;;;;;;;;;4898776;28;20102;-82
2023/12/04 00:37:54;;;;;;;0.20;0.10;;;;;;;;;;4922768;28;20051;-82
2023/12/04 00:40:20;;;;;;;0.20;0.00;;;;;;;;;;4947104;28;20047;-82
2023/12/04 00:42:46;;;;;;;0.20;0.00;;;;;;;;;;4937519;28;20050;-83
2023/12/04 00:45:12;;;;;;;0.20;0.10;;;;;;;;;;4934942;28;20073;-84
2023/12/04 00:47:38;;;;;;;0.20;0.17;;;;;;;;;;4918819;29;20075;-82
2023/12/04 00:50:04;;;;;;;0.20;0.10;;;;;;;;;;4937201;28;20077;-82
2023/12/04 00:52:30;;;;;;;0.20;0.15;;;;;;;;;;4928536;28;20039;-83
2023/12/04 00:54:56;;;;;;;0.20;0.10;;;;;;;;;;4935364;28;20070;-85
2023/12/04 00:57:22;;;;;;;0.20;0.10;;;;;;;;;;4931605;28;20047;-82
2023/12/04 00:59:51;;;;;;;0.20;0.20;;;;;;;;;;4940172;28;20036;-87
2023/12/04 01:02:17;;;;;;;0.88;0.55;;;;;;;;;;4932454;28;20054;-84
2023/12/04 01:04:43;;;;;;;0.20;0.10;;;;;;;;;;4905162;29;20457;-84
2023/12/04 01:07:09;;;;;;;0.30;0.30;;;;;;;;;;4936578;28;20043;-82
2023/12/04 01:09:36;;;;;;;0.20;0.10;;;;;;;;;;4914005;28;20093;-82
2023/12/04 01:12:02;;;;;;;0.20;0.10;;;;;;;;;;4941255;28;20040;-83
2023/12/04 01:14:30;;;;;;;0.20;0.15;;;;;;;;;;4935201;28;20090;-83
2023/12/04 01:16:56;;;;;;;0.20;0.10;;;;;;;;;;4906057;28;20039;-82
2023/12/04 01:19:22;;;;;;;0.20;0.10;;;;;;;;;;4933752;28;20079;-84
2023/12/04 01:21:48;;;;;;;0.20;0.10;;;;;;;;;;4953061;28;20055;-84
2023/12/04 01:24:23;;;;;;;0.20;0.10;;;;;;;;;;4936658;28;20503;-82
2023/12/04 01:26:49;;;;;;;0.20;0.10;;;;;;;;;;4923342;28;20047;-83
2023/12/04 01:29:15;;;;;;;0.20;0.10;;;;;;;;;;4939252;28;20094;-84
2023/12/04 01:31:44;;;;;;;0.30;0.13;;;;;;;;;;4935432;28;20500;-87
2023/12/04 01:34:10;;;;;;;0.20;0.10;;;;;;;;;;4933324;28;20039;-83
2023/12/04 01:36:37;;;;;;;0.30;0.20;;;;;;;;;;4936050;28;20089;-83
2023/12/04 01:39:03;;;;;;;0.20;0.10;;;;;;;;;;4917674;29;20507;-82
2023/12/04 01:41:29;;;;;;;0.20;0.10;;;;;;;;;;4922070;29;20038;-84
2023/12/04 01:43:55;;;;;;;0.20;0.10;;;;;;;;;;4932400;28;20035;-81
2023/12/04 01:46:22;;;;;;;0.20;0.10;;;;;;;;;;4903676;28;20062;-82
2023/12/04 01:48:48;;;;;;;0.20;0.10;;;;;;;;;;4932193;28;20082;-79
2023/12/04 01:51:14;;;;;;;0.20;0.10;;;;;;;;;;4935566;28;20353;-81
2023/12/04 01:53:40;;;;;;;0.20;0.10;;;;;;;;;;4932154;28;20102;-80
2023/12/04 01:56:07;;;;;;;0.20;0.10;;;;;;;;;;4957125;28;20162;-80
2023/12/04 01:58:33;;;;;;;0.20;0.08;;;;;;;;;;4917843;28;20094;-82
2023/12/04 02:00:59;;;;;;;0.20;0.10;;;;;;;;;;4914322;28;20050;-79
2023/12/04 02:03:25;;;;;;;0.20;0.10;;;;;;;;;;4926877;29;20050;-81
2023/12/04 02:05:53;;;;;;;0.20;0.10;;;;;;;;;;4908152;28;20075;-80
2023/12/04 02:08:19;;;;;;;0.20;0.10;;;;;;;;;;4921431;29;20054;-80
2023/12/04 02:10:45;;;;;;;0.20;0.10;;;;;;;;;;4924125;28;20040;-82
2023/12/04 02:13:11;;;;;;;0.73;0.32;;;;;;;;;;4945621;28;20043;-81
2023/12/04 02:15:37;;;;;;;0.20;0.10;;;;;;;;;;4925351;29;20032;-81
2023/12/04 02:18:04;;;;;;;0.20;0.10;;;;;;;;;;4945252;28;20044;-81
2023/12/04 02:20:33;;;;;;;0.20;0.10;;;;;;;;;;4943506;28;20043;-81
2023/12/04 02:23:00;;;;;;;0.20;0.10;;;;;;;;;;4914842;29;20057;-81
2023/12/04 02:25:26;;;;;;;0.20;0.10;;;;;;;;;;4947022;28;20046;-81
2023/12/04 02:27:53;;;;;;;0.20;0.10;;;;;;;;;;4932979;29;20044;-81
2023/12/04 02:30:21;;;;;;;0.20;0.10;;;;;;;;;;4961484;28;20044;-81
2023/12/04 02:32:48;;;;;;;0.20;0.10;;;;;;;;;;4951321;28;20035;-81
2023/12/04 02:35:15;;;;;;;0.20;0.10;;;;;;;;;;4945918;28;20066;-81
2023/12/04 02:37:41;;;;;;;0.28;0.17;;;;;;;;;;4947298;28;20047;-81
2023/12/04 02:40:07;;;;;;;0.20;0.00;;;;;;;;;;4946075;28;20043;-81
2023/12/04 02:42:33;;;;;;;0.20;0.10;;;;;;;;;;4942139;28;20047;-80
2023/12/04 02:44:59;;;;;;;0.20;0.10;;;;;;;;;;4944784;28;20054;-81
2023/12/04 02:47:25;;;;;;;0.20;0.10;;;;;;;;;;4930382;29;20040;-81
2023/12/04 02:49:52;;;;;;;0.22;0.15;;;;;;;;;;4924875;28;20040;-81
2023/12/04 02:52:18;;;;;;;0.20;0.10;;;;;;;;;;4931887;29;20061;-81
2023/12/04 02:54:44;;;;;;;0.20;0.10;;;;;;;;;;4910619;28;20066;-81
2023/12/04 02:57:10;;;;;;;0.20;0.10;;;;;;;;;;4941095;28;20039;-81
2023/12/04 02:59:36;;;;;;;0.20;0.10;;;;;;;;;;4917473;28;20061;-80
2023/12/04 03:02:03;;;;;;;0.20;0.10;;;;;;;;;;4935645;28;20051;-82
2023/12/04 03:04:29;;;;;;;0.20;0.10;;;;;;;;;;4948405;28;20039;-81
2023/12/04 03:06:55;;;;;;;0.20;0.03;;;;;;;;;;4962308;28;20063;-81
2023/12/04 03:09:22;;;;;;;0.20;0.00;;;;;;;;;;4941673;28;20039;-80
2023/12/04 03:11:48;;;;;;;0.20;0.03;;;;;;;;;;4923383;28;20054;-82
2023/12/04 03:14:14;;;;;;;0.20;0.10;;;;;;;;;;4959046;28;20039;-82
2023/12/04 03:16:40;;;;;;;0.35;0.35;;;;;;;;;;4938827;28;20063;-80
2023/12/04 03:19:06;;;;;;;0.20;0.10;;;;;;;;;;4939138;28;20057;-80
2023/12/04 03:21:32;;;;;;;0.20;0.10;;;;;;;;;;4926073;29;20039;-82
2023/12/04 03:23:58;;;;;;;0.20;0.10;;;;;;;;;;4923578;28;20042;-80
2023/12/04 03:26:24;;;;;;;0.20;0.10;;;;;;;;;;4941190;28;20043;-81
2023/12/04 03:28:50;;;;;;;0.68;0.38;;;;;;;;;;4945984;28;20504;-82
2023/12/04 03:31:16;;;;;;;0.20;0.10;;;;;;;;;;4920434;28;20043;-82
2023/12/04 03:33:42;;;;;;;0.20;0.10;;;;;;;;;;4932120;28;20769;-81
2023/12/04 03:36:08;;;;;;;0.20;0.10;;;;;;;;;;4943346;28;20070;-82
2023/12/04 03:38:34;;;;;;;0.20;0.10;;;;;;;;;;4923832;28;20054;-81
2023/12/04 03:41:00;;;;;;;0.20;0.10;;;;;;;;;;4942692;28;20129;-81
2023/12/04 03:43:26;;;;;;;0.20;0.10;;;;;;;;;;4947483;28;20130;-82
2023/12/04 03:45:52;;;;;;;0.20;0.00;;;;;;;;;;4914066;28;20165;-83
2023/12/04 03:48:18;;;;;;;0.20;0.10;;;;;;;;;;4939287;28;20540;-81
2023/12/04 03:50:44;;;;;;;0.20;0.10;;;;;;;;;;4946422;28;20031;-81
2023/12/04 03:53:11;;;;;;;0.20;0.00;;;;;;;;;;4911779;28;20039;-82
2023/12/04 03:55:37;;;;;;;0.20;0.00;;;;;;;;;;4940167;28;20050;-81
2023/12/04 03:58:04;;;;;;;0.20;0.10;;;;;;;;;;4938290;28;20046;-82
2023/12/04 04:00:30;;;;;;;0.43;0.20;;;;;;;;;;4925177;28;20066;-81
2023/12/04 04:02:56;;;;;;;0.20;0.10;;;;;;;;;;4923952;29;20733;-79
2023/12/04 04:05:22;;;;;;;0.20;0.10;;;;;;;;;;4931316;28;20051;-79
2023/12/04 04:07:48;;;;;;;0.20;0.10;;;;;;;;;;4955037;28;20602;-81
2023/12/04 04:10:14;;;;;;;0.20;0.10;;;;;;;;;;4942692;28;20035;-81
2023/12/04 04:12:40;;;;;;;0.20;0.00;;;;;;;;;;4943506;28;20047;-81
2023/12/04 04:15:06;;;;;;;0.20;0.10;;;;;;;;;;4946085;28;20073;-81
2023/12/04 04:17:33;;;;;;;0.20;0.10;;;;;;;;;;4940613;28;20056;-82
2023/12/04 04:19:59;;;;;;;0.20;0.10;;;;;;;;;;4923844;29;20545;-82
2023/12/04 04:22:26;;;;;;;0.20;0.10;;;;;;;;;;4934646;28;20670;-82
2023/12/04 04:24:52;;;;;;;0.20;0.08;;;;;;;;;;4937734;28;20055;-82
2023/12/04 04:27:18;;;;;;;2.22;1.95;;;;;;;;;;4926856;28;20082;-82
2023/12/04 04:29:44;;;;;;;0.20;0.10;;;;;;;;;;4920044;29;20527;-82
2023/12/04 04:32:10;;;;;;;0.20;0.10;;;;;;;;;;4937700;28;20031;-82
2023/12/04 04:34:36;;;;;;;0.20;0.10;;;;;;;;;;4917619;28;20423;-80
2023/12/04 04:37:02;;;;;;;0.63;0.63;;;;;;;;;;4941437;28;20047;-80
2023/12/04 04:39:28;;;;;;;0.20;0.10;;;;;;;;;;4928041;29;20043;-82
2023/12/04 04:41:54;;;;;;;1.25;1.15;;;;;;;;;;4959738;28;20055;-81
2023/12/04 04:44:20;;;;;;;0.20;0.10;;;;;;;;;;4941760;28;20134;-81
2023/12/04 04:46:46;;;;;;;0.20;0.10;;;;;;;;;;4936941;28;20839;-81
2023/12/04 04:49:12;;;;;;;0.20;0.10;;;;;;;;;;4939803;28;20042;-80
2023/12/04 04:51:38;;;;;;;0.20;0.10;;;;;;;;;;4942968;28;20101;-81
2023/12/04 04:54:04;;;;;;;0.20;0.10;;;;;;;;;;4924221;29;20044;-80
2023/12/04 04:56:30;;;;;;;0.20;0.10;;;;;;;;;;4922220;29;20042;-81
2023/12/04 04:58:56;;;;;;;0.98;0.88;;;;;;;;;;4934333;28;20043;-81
2023/12/04 05:01:22;;;;;;;0.20;0.10;;;;;;;;;;4936977;28;20130;-82
2023/12/04 05:03:48;;;;;;;0.20;0.10;;;;;;;;;;4912489;28;20107;-81
2023/12/04 05:06:15;;;;;;;0.20;0.10;;;;;;;;;;4952125;28;20058;-82
2023/12/04 05:08:41;;;;;;;0.20;0.10;;;;;;;;;;4957375;28;20126;-82
2023/12/04 05:11:07;;;;;;;0.20;0.10;;;;;;;;;;4952931;28;20143;-81
2023/12/04 05:13:33;;;;;;;0.20;0.10;;;;;;;;;;4938685;28;20039;-83
2023/12/04 05:15:59;;;;;;;0.20;0.10;;;;;;;;;;4938681;28;20049;-81
2023/12/04 05:18:25;;;;;;;0.20;0.10;;;;;;;;;;4926329;29;20039;-82
2023/12/04 05:20:51;;;;;;;0.20;0.10;;;;;;;;;;4927818;28;20074;-83
2023/12/04 05:23:17;;;;;;;0.20;0.10;;;;;;;;;;4949026;28;20074;-81
2023/12/04 05:25:43;;;;;;;1.88;0.73;;;;;;;;;;4914920;28;20141;-81
2023/12/04 05:28:09;;;;;;;0.20;0.20;;;;;;;;;;4947847;28;20039;-82
2023/12/04 05:30:35;;;;;;;0.20;0.10;;;;;;;;;;4915926;28;20050;-81
2023/12/04 05:33:01;;;;;;;0.20;0.03;;;;;;;;;;4948391;28;20625;-82
2023/12/04 05:35:28;;;;;;;0.20;0.10;;;;;;;;;;4947849;28;20051;-82
2023/12/04 05:37:54;;;;;;;0.20;0.10;;;;;;;;;;4935346;28;20047;-82
2023/12/04 05:40:20;;;;;;;0.20;0.10;;;;;;;;;;4918021;28;20043;-80
2023/12/04 05:42:46;;;;;;;0.20;0.10;;;;;;;;;;4936515;28;20142;-81
2023/12/04 05:45:12;;;;;;;0.20;0.10;;;;;;;;;;4943685;28;20047;-81
2023/12/04 05:47:38;;;;;;;0.20;0.10;;;;;;;;;;4933563;28;20707;-82
2023/12/04 05:50:04;;;;;;;0.20;0.10;;;;;;;;;;4921281;29;20040;-82
2023/12/04 05:52:30;;;;;;;0.20;0.10;;;;;;;;;;4937247;28;20047;-82
2023/12/04 05:54:56;;;;;;;0.20;0.10;;;;;;;;;;4939411;28;20047;-81
2023/12/04 05:57:22;;;;;;;0.20;0.10;;;;;;;;;;4940519;28;20057;-80
2023/12/04 05:59:48;;;;;;;0.20;0.10;;;;;;;;;;4923421;28;20048;-80
2023/12/04 06:02:15;;;;;;;0.20;0.10;;;;;;;;;;4953535;28;20106;-82
2023/12/04 06:04:41;;;;;;;0.20;0.10;;;;;;;;;;4908196;29;20035;-81
2023/12/04 06:07:08;;;;;;;0.20;0.10;;;;;;;;;;4934440;28;20953;-82
2023/12/04 06:09:36;;;;;;;0.20;0.10;;;;;;;;;;4904801;28;20126;-82
2023/12/04 06:12:07;;;;;;;0.20;0.10;;;;;;;;;;4906243;28;20157;-82
2023/12/04 06:14:33;;;;;;;0.20;0.10;;;;;;;;;;4949687;28;20054;-81
2023/12/04 06:16:59;;;;;;;0.20;0.10;;;;;;;;;;4924097;28;20078;-82
2023/12/04 06:19:25;;;;;;;0.20;0.10;;;;;;;;;;4908034;28;20035;-82
2023/12/04 06:21:52;;;;;;;0.20;0.10;;;;;;;;;;4909304;29;20047;-80
2023/12/04 06:24:19;;;;;;;0.20;0.10;;;;;;;;;;4921589;28;20042;-81
2023/12/04 06:26:49;;;;;;;0.35;0.35;;;;;;;;;;4932212;28;20098;-81
2023/12/04 06:29:16;;;;;;;0.20;0.10;;;;;;;;;;4928649;28;20035;-82
2023/12/04 06:31:42;;;;;;;0.20;0.10;;;;;;;;;;4920507;28;20046;-82
2023/12/04 06:34:08;;;;;;;0.20;0.10;;;;;;;;;;4955072;28;20408;-81
2023/12/04 06:36:38;;;;;;;0.20;0.10;;;;;;;;;;4954863;28;20575;-81
2023/12/04 06:39:07;;;;;;;0.20;0.10;;;;;;;;;;4933630;28;20284;-82
2023/12/04 06:41:34;;;;;;;0.20;0.10;;;;;;;;;;4946281;28;20050;-80
2023/12/04 06:44:00;;;;;;;0.20;0.10;;;;;;;;;;4920802;29;20051;-82
2023/12/04 06:46:28;;;;;;;0.20;0.10;;;;;;;;;;4954915;28;20035;-81
2023/12/04 06:48:55;;;;;;;0.20;0.10;;;;;;;;;;4943764;28;20051;-80
2023/12/04 06:51:21;;;;;;;0.20;0.10;;;;;;;;;;4942256;28;20126;-80
2023/12/04 06:53:47;;;;;;;0.20;0.10;;;;;;;;;;4921049;29;20126;-81
2023/12/04 06:56:13;;;;;;;0.50;0.30;;;;;;;;;;4964222;28;20035;-83
2023/12/04 06:58:39;;;;;;;0.20;0.10;;;;;;;;;;4929029;28;20039;-81
2023/12/04 07:01:05;;;;;;;0.20;0.10;;;;;;;;;;4920225;28;20047;-82
2023/12/04 07:03:31;;;;;;;0.20;0.10;;;;;;;;;;4965527;28;20102;-81
2023/12/04 07:05:57;;;;;;;0.20;0.10;;;;;;;;;;4948270;28;20085;-82
2023/12/04 07:08:23;;;;;;;0.22;0.22;;;;;;;;;;4942750;28;20047;-82
2023/12/04 07:10:49;;;;;;;6.13;0.57;;;;;;;;;;4939330;28;20074;-81
2023/12/04 07:13:16;;;;;;;0.20;0.10;;;;;;;;;;4959725;28;20126;-83
2023/12/04 07:15:42;;;;;;;0.45;0.30;;;;;;;;;;4913590;29;20495;-81
2023/12/04 07:18:08;;;;;;;0.20;0.10;;;;;;;;;;4941679;28;20054;-81
2023/12/04 07:20:34;;;;;;;0.20;0.10;;;;;;;;;;4962785;28;20035;-81
2023/12/04 07:23:00;;;;;;;0.20;0.10;;;;;;;;;;4929174;29;20055;-82
2023/12/04 07:25:26;;;;;;;0.20;0.10;;;;;;;;;;4931213;28;20054;-83
2023/12/04 07:27:52;;;;;;;0.20;0.10;;;;;;;;;;4944155;28;20036;-82
2023/12/04 07:30:20;;;;;;;0.20;0.10;;;;;;;;;;4963462;28;20125;-83
2023/12/04 07:32:46;;;;;;;0.20;0.10;;;;;;;;;;4931584;29;20529;-81
2023/12/04 07:35:12;;;;;;;0.20;0.10;;;;;;;;;;4945560;28;20031;-82
2023/12/04 07:37:38;;;;;;;0.20;0.00;;;;;;;;;;4939876;29;20469;-82
2023/12/04 07:40:05;;;;;;;0.20;0.00;;;;;;;;;;4915179;29;20046;-82
2023/12/04 07:42:32;;;;;;;0.20;0.10;;;;;;;;;;4924489;29;20070;-82
2023/12/04 07:44:58;;;;;;;0.20;0.10;;;;;;;;;;4955706;28;20055;-82
2023/12/04 07:47:24;;;;;;;0.20;0.10;;;;;;;;;;4926131;29;20052;-83
2023/12/04 07:49:50;;;;;;;0.20;0.10;;;;;;;;;;4929451;28;20043;-81
2023/12/04 07:52:16;;;;;;;0.20;0.10;;;;;;;;;;4948289;28;20770;-81
2023/12/04 07:54:42;;;;;;;0.20;0.10;;;;;;;;;;4937258;28;20035;-83
2023/12/04 07:57:08;;;;;;;0.20;0.10;;;;;;;;;;4945317;28;20136;-82
2023/12/04 07:59:34;;;;;;;0.20;0.10;;;;;;;;;;4934076;28;20132;-83
2023/12/04 08:02:00;;;;;;;0.20;0.00;;;;;;;;;;4946905;28;20051;-84
2023/12/04 08:04:27;;;;;;;0.20;0.10;;;;;;;;;;4934000;28;20051;-81
2023/12/04 08:06:53;;;;;;;0.20;0.10;;;;;;;;;;4918605;29;20098;-80
2023/12/04 08:09:19;;;;;;;0.20;0.13;;;;;;;;;;4940572;28;20099;-82
2023/12/04 08:11:46;;;;;;;0.20;0.10;;;;;;;;;;4965796;28;20527;-81
2023/12/04 08:14:12;;;;;;;0.20;0.20;;;;;;;;;;4924998;29;20126;-82
2023/12/04 08:16:38;;;;;;;0.20;0.10;;;;;;;;;;4957878;28;20477;-82
2023/12/04 08:19:04;;;;;;;0.25;0.25;;;;;;;;;;4941577;28;20039;-82
2023/12/04 08:21:30;;;;;;;0.20;0.10;;;;;;;;;;4942862;28;20053;-83
2023/12/04 08:23:56;;;;;;;0.20;0.10;;;;;;;;;;4958347;28;20061;-82
2023/12/04 08:26:24;;;;;;;0.20;0.10;;;;;;;;;;4944337;28;20639;-81
2023/12/04 08:28:50;;;;;;;0.20;0.10;;;;;;;;;;4940910;29;20044;-83
2023/12/04 08:31:16;;;;;;;0.20;0.00;;;;;;;;;;4947681;29;20130;-81
2023/12/04 08:33:42;;;;;;;0.20;0.10;;;;;;;;;;4927218;29;20062;-82
2023/12/04 08:36:09;;;;;;;0.20;0.10;;;;;;;;;;4936268;29;20509;-81
2023/12/04 08:38:36;;;;;;;0.20;0.10;;;;;;;;;;4923060;29;20039;-81
2023/12/04 08:41:02;;;;;;;0.20;0.10;;;;;;;;;;4923114;29;20047;-82
2023/12/04 08:43:28;;;;;;;0.20;0.20;;;;;;;;;;4918433;28;20078;-80
2023/12/04 08:45:54;;;;;;;0.20;0.10;;;;;;;;;;4917999;28;21271;-82
2023/12/04 08:48:20;;;;;;;0.20;0.20;;;;;;;;;;4943502;29;20079;-81
2023/12/04 08:50:47;;;;;;;0.20;0.10;;;;;;;;;;4940604;28;22231;-82
2023/12/04 08:53:13;;;;;;;0.20;0.10;;;;;;;;;;4927010;29;20489;-83
2023/12/04 08:55:39;;;;;;;0.20;0.10;;;;;;;;;;4942414;28;20044;-82
2023/12/04 08:58:05;;;;;;;0.20;0.10;;;;;;;;;;4936153;28;20046;-81
2023/12/04 09:00:32;;;;;;;0.20;0.10;;;;;;;;;;4914256;28;20043;-80
2023/12/04 09:02:58;;;;;;;0.20;0.10;;;;;;;;;;4922423;28;20408;-80
2023/12/04 09:05:24;;;;;;;0.20;0.10;;;;;;;;;;4923959;29;20045;-82
2023/12/04 09:07:50;;;;;;;0.20;0.20;;;;;;;;;;4944145;28;20053;-81
2023/12/04 09:10:17;;;;;;;0.20;0.10;;;;;;;;;;4943722;29;20126;-82
2023/12/04 09:12:43;;;;;;;0.20;0.10;;;;;;;;;;4924000;29;20039;-82
2023/12/04 09:15:09;;;;;;;0.63;0.63;;;;;;;;;;4957625;28;20059;-82
2023/12/04 09:17:35;;;;;;;0.57;0.35;;;;;;;;;;4925590;29;20043;-80
2023/12/04 09:20:01;;;;;;;0.20;0.10;;;;;;;;;;4928594;29;20054;-82
2023/12/04 09:22:27;;;;;;;0.20;0.10;;;;;;;;;;4912225;28;20512;-81
2023/12/04 09:24:54;;;;;;;0.20;0.10;;;;;;;;;;4951835;28;20122;-82
2023/12/04 09:27:20;;;;;;;1.55;0.40;;;;;;;;;;4932395;28;20161;-81
2023/12/04 09:29:46;;;;;;;0.20;0.10;;;;;;;;;;4937376;28;20110;-82
2023/12/04 09:32:12;;;;;;;0.20;0.10;;;;;;;;;;4950143;28;20447;-82
2023/12/04 09:34:38;;;;;;;0.20;0.10;;;;;;;;;;4924290;28;20036;-81
2023/12/04 09:37:04;;;;;;;0.20;0.10;;;;;;;;;;4910606;29;20070;-81
2023/12/04 09:39:30;;;;;;;0.20;0.10;;;;;;;;;;4941878;28;20043;-81
2023/12/04 09:41:57;;;;;;;0.20;0.10;;;;;;;;;;4914177;29;20047;-82
2023/12/04 09:44:24;;;;;;;0.20;0.10;;;;;;;;;;4940913;28;20053;-82
2023/12/04 09:46:51;;;;;;;0.20;0.10;;;;;;;;;;4918494;29;20130;-81
2023/12/04 09:49:18;;;;;;;0.20;0.10;;;;;;;;;;4948003;29;20105;-81
2023/12/04 09:51:44;;;;;;;0.20;0.10;;;;;;;;;;4962470;28;20031;-82
2023/12/04 09:54:11;;;;;;;0.20;0.10;;;;;;;;;;4911528;29;20516;-80
2023/12/04 09:56:38;;;;;;;0.20;0.10;;;;;;;;;;4936058;28;20039;-82
2023/12/04 09:59:06;;;;;;;0.20;0.10;;;;;;;;;;4926013;29;20047;-81
2023/12/04 10:01:32;;;;;;;0.20;0.10;;;;;;;;;;4938538;28;20044;-81
2023/12/04 10:04:04;;;;;;;0.20;0.10;;;;;;;;;;4933887;28;20134;-80
2023/12/04 10:06:31;;;;;;;0.20;0.10;;;;;;;;;;4943041;28;20047;-81
2023/12/04 10:08:58;;;;;;;0.20;0.00;;;;;;;;;;4930333;28;20051;-82
2023/12/04 10:11:27;;;;;;;1.75;0.40;;;;;;;;;;4950143;28;20043;-82
2023/12/04 10:13:53;;;;;;;0.20;0.00;;;;;;;;;;4922794;29;20047;-82
2023/12/04 10:16:33;;;;;;;0.20;0.00;;;;;;;;;;4939536;29;20731;-82
2023/12/04 10:19:14;;;;;;;0.20;0.10;;;;;;;;;;4960211;28;20074;-81
2023/12/04 10:21:40;;;;;;;0.20;0.10;;;;;;;;;;4925888;29;20061;-82
2023/12/04 10:24:06;;;;;;;0.20;0.10;;;;;;;;;;4962446;28;20039;-80
2023/12/04 10:26:32;;;;;;;0.20;0.10;;;;;;;;;;4946499;28;20078;-82
2023/12/04 10:29:02;;;;;;;0.20;0.10;;;;;;;;;;4927222;28;20370;-82
2023/12/04 10:31:33;;;;;;;0.20;0.10;;;;;;;;;;4955026;28;20044;-82
2023/12/04 10:33:59;;;;;;;0.20;0.10;;;;;;;;;;4931897;29;20443;-81
2023/12/04 10:36:25;;;;;;;0.20;0.10;;;;;;;;;;4937277;28;20038;-82
2023/12/04 10:39:01;;;;;;;0.20;0.10;;;;;;;;;;4929475;28;20543;-81
2023/12/04 10:41:27;;;;;;;0.20;0.10;;;;;;;;;;4960793;28;20562;-82
2023/12/04 10:43:53;;;;;;;0.20;0.10;;;;;;;;;;4931667;29;20051;-82
2023/12/04 10:46:20;;;;;;;0.20;0.10;;;;;;;;;;4942190;28;20094;-82
2023/12/04 10:48:47;;;;;;;0.20;0.10;;;;;;;;;;4928155;28;20095;-82
2023/12/04 10:51:14;;;;;;;0.20;0.10;;;;;;;;;;4965245;28;20404;-81
2023/12/04 10:53:42;;;;;;;0.20;0.10;;;;;;;;;;4946186;28;20345;-81
2023/12/04 10:56:10;;;;;;;0.20;0.10;;;;;;;;;;4946531;28;20432;-80
2023/12/04 10:58:38;;;;;;;0.20;0.10;;;;;;;;;;4949537;28;20073;-82
2023/12/04 11:01:08;;;;;;;0.20;0.10;;;;;;;;;;4939159;29;20044;-83
2023/12/04 11:03:42;;;;;;;0.20;0.10;;;;;;;;;;4957218;28;20132;-81
2023/12/04 11:06:10;;;;;;;0.20;0.10;;;;;;;;;;4946937;28;20553;-82
2023/12/04 11:08:37;;;;;;;0.20;0.10;;;;;;;;;;4921490;29;20043;-82
2023/12/04 11:11:04;;;;;;;0.20;0.10;;;;;;;;;;4947792;28;20138;-82
2023/12/04 11:13:35;;;;;;;0.20;0.10;;;;;;;;;;4946039;29;20035;-81
2023/12/04 11:16:10;;;;;;;0.20;0.10;;;;;;;;;;4928752;28;20690;-82
2023/12/04 11:18:37;;;;;;;0.20;0.10;;;;;;;;;;4946290;29;20121;-82
2023/12/04 11:21:08;;;;;;;0.20;0.10;;;;;;;;;;4932055;29;20043;-82
2023/12/04 11:23:35;;;;;;;0.20;0.00;;;;;;;;;;4958349;28;20065;-82
2023/12/04 11:26:03;;;;;;;0.20;0.10;;;;;;;;;;4928413;29;20057;-83
2023/12/04 11:28:30;;;;;;;0.20;0.10;;;;;;;;;;4950238;28;20050;-82
2023/12/04 11:30:57;;;;;;;0.20;0.10;;;;;;;;;;4952134;28;20067;-82
2023/12/04 11:33:24;;;;;;;0.20;0.10;;;;;;;;;;4936406;28;20090;-83
2023/12/04 11:35:50;;;;;;;0.20;0.10;;;;;;;;;;4959550;28;20094;-83
2023/12/04 11:38:20;;;;;;;0.20;0.10;;;;;;;;;;4917384;29;20047;-83
2023/12/04 11:40:49;;;;;;;0.20;0.10;;;;;;;;;;4938473;28;20573;-83
2023/12/04 11:43:29;;;;;;;0.20;0.10;;;;;;;;;;4945098;28;20044;-83
2023/12/04 11:46:08;;;;;;;0.20;0.10;;;;;;;;;;4959579;28;20044;-84
2023/12/04 11:48:34;;;;;;;0.20;0.10;;;;;;;;;;4944332;28;20038;-85
2023/12/04 11:51:03;;;;;;;0.20;0.10;;;;;;;;;;4956069;28;20075;-87
2023/12/04 11:53:32;;;;;;;0.20;0.10;;;;;;;;;;4959485;28;20399;-86
2023/12/04 11:55:58;;;;;;;0.20;0.10;;;;;;;;;;4944752;28;20531;-86
2023/12/04 11:58:27;;;;;;;0.20;0.10;;;;;;;;;;4958889;28;20043;-85
2023/12/04 12:00:55;;;;;;;0.20;0.10;;;;;;;;;;4944273;28;20068;-85
2023/12/04 12:03:27;;;;;;;0.20;0.10;;;;;;;;;;4947776;28;20073;-87
2023/12/04 12:09:05;;;;;;;0.20;0.10;;;;;;;;;;4932013;28;20043;-87
2023/12/04 12:11:54;;;;;;;0.20;0.10;;;;;;;;;;4925585;29;20082;-86
2023/12/04 12:15:05;;;;;;;0.20;0.10;;;;;;;;;;4932655;28;20068;-87
2023/12/04 12:17:47;;;;;;;1.58;0.55;;;;;;;;;;4944421;28;20051;-85
2023/12/04 12:47:04;;;;;;;0.20;0.10;;;;;;;;;;4850683;29;20096;-86
2023/12/04 12:50:07;;;;;;;;;;;;;;;;;;;;;
2023/12/04 12:53:30;;;;;;;;;;;;;;;;;;;;;
2023/12/04 12:59:37;;;;;;;0.20;0.10;;;;;;;;;;4923494;29;20103;-84
2023/12/04 13:02:16;;;;;;;0.20;0.10;;;;;;;;;;4935058;28;20080;-84
2023/12/04 13:05:04;;;;;;;0.20;0.10;;;;;;;;;;4971266;28;20112;-84
2023/12/04 13:07:51;;;;;;;0.20;0.10;;;;;;;;;;4947402;28;20043;-84
2023/12/04 13:10:26;;;;;;;0.20;0.10;;;;;;;;;;4954777;28;20052;-82
2023/12/04 13:13:02;;;;;;;0.20;0.00;;;;;;;;;;4965024;28;20050;-83
2023/12/04 13:15:50;;;;;;;0.20;0.10;;;;;;;;;;4963876;28;20055;-83
2023/12/04 13:18:40;;;;;;;0.20;0.10;;;;;;;;;;4964233;28;20125;-83
2023/12/04 13:21:30;;;;;;;0.20;0.00;;;;;;;;;;4959854;28;20046;-84
2023/12/04 13:23:59;;;;;;;0.20;0.10;;;;;;;;;;4960599;28;20125;-82
2023/12/04 13:26:41;;;;;;;0.20;0.07;;;;;;;;;;4966936;28;20125;-84
2023/12/04 13:29:26;;;;;;;0.20;0.10;;;;;;;;;;4983640;28;20041;-82
2023/12/04 13:35:16;;;;;;;0.20;0.10;;;;;;;;;;4982141;28;20081;-82
2023/12/04 13:37:46;;;;;;;0.20;0.10;;;;;;;;;;4949788;28;20498;-83
2023/12/04 13:40:15;;;;;;;0.20;0.00;;;;;;;;;;4950604;28;20048;-83
2023/12/04 13:45:55;;;;;;;0.20;0.10;;;;;;;;;;4959720;28;20054;-83
2023/12/04 13:48:51;;;;;;;0.20;0.00;;;;;;;;;;4952633;28;20053;-83
2023/12/04 13:51:28;;;;;;;0.20;0.00;;;;;;;;;;4959885;28;20054;-84
2023/12/04 13:54:04;;;;;;;0.20;0.10;;;;;;;;;;4947025;28;20050;-82
2023/12/04 13:59:21;;;;;;;0.30;0.20;;;;;;;;;;4960176;28;20054;-82
2023/12/04 14:02:00;;;;;;;0.20;0.00;;;;;;;;;;4952966;28;20407;-83
2023/12/04 14:07:34;;;;;;;0.20;0.10;;;;;;;;;;4965018;28;20048;-84
2023/12/04 14:10:26;;;;;;;0.20;0.10;;;;;;;;;;4973038;28;20050;-84
2023/12/04 14:12:58;;;;;;;0.20;0.10;;;;;;;;;;4965404;28;20042;-83
2023/12/04 14:15:24;;;;;;;0.20;0.10;;;;;;;;;;4954868;28;20057;-83
2023/12/04 14:17:50;;;;;;;0.30;0.20;;;;;;;;;;4952801;28;20487;-81
2023/12/04 14:20:21;;;;;;;0.20;0.10;;;;;;;;;;4954079;28;20499;-83
2023/12/04 14:22:50;;;;;;;0.43;0.40;;;;;;;;;;4948804;28;20035;-82
2023/12/04 14:25:17;;;;;;;0.30;0.20;;;;;;;;;;4951799;28;20197;-83
2023/12/04 14:27:44;;;;;;;0.20;0.10;;;;;;;;;;4951016;28;20096;-83
2023/12/04 14:30:19;;;;;;;0.20;0.10;;;;;;;;;;4960424;28;20038;-83
2023/12/04 14:32:46;;;;;;;0.20;0.10;;;;;;;;;;4972500;28;20590;-82
2023/12/04 14:35:16;;;;;;;0.20;0.10;;;;;;;;;;4983702;28;20505;-83
2023/12/04 14:37:45;;;;;;;0.20;0.13;;;;;;;;;;4953223;28;20050;-83
2023/12/04 14:40:27;;;;;;;0.20;0.03;;;;;;;;;;4961538;28;20046;-83
2023/12/04 14:43:05;;;;;;;0.20;0.10;;;;;;;;;;4968143;28;20522;-83
2023/12/04 14:45:39;;;;;;;0.20;0.10;;;;;;;;;;4964802;28;20077;-83
2023/12/04 14:48:14;;;;;;;0.20;0.10;;;;;;;;;;4963020;28;20046;-82
2023/12/04 14:50:40;;;;;;;0.20;0.10;;;;;;;;;;4953148;28;20041;-83
2023/12/04 15:07:55;;;;;;;0.20;0.10;;;;;;;;;;4945142;28;20166;-82
2023/12/04 15:16:14;;;;;;;0.20;0.10;;;;;;;;;;4972106;28;20492;-82
2023/12/04 15:18:37;;;;;;;0.20;0.10;;;;;;;;;;4963249;28;20055;-82
2023/12/04 15:21:04;;;;;;;0.20;0.10;;;;;;;;;;4952699;28;20114;-83
2023/12/04 15:23:30;;;;;;;0.20;0.10;;;;;;;;;;4965662;28;20120;-82
2023/12/04 15:25:56;;;;;;;0.20;0.10;;;;;;;;;;4951873;28;20077;-82
2023/12/04 15:28:22;;;;;;;0.20;0.10;;;;;;;;;;4954704;28;20030;-82
2023/12/04 15:30:58;;;;;;;0.20;0.10;;;;;;;;;;4968927;23;20408;-82
2023/12/04 15:33:59;;;;;;;0.20;0.10;;;;;;;;;;4947916;28;20591;-83
2023/12/04 15:36:25;;;;;;;0.30;0.22;;;;;;;;;;4961841;28;20055;-83
2023/12/04 15:39:00;;;;;;;0.20;0.03;;;;;;;;;;4962367;28;20081;-82
2023/12/04 15:42:06;;;;;;;0.20;0.10;;;;;;;;;;4932204;28;20534;-83
2023/12/04 15:44:49;;;;;;;0.20;0.10;;;;;;;;;;4930347;28;20527;-84
2023/12/04 15:47:54;;;;;;;;;;;;;;;;;;;;;
2023/12/04 15:50:25;;;;;;;0.20;0.10;;;;;;;;;;4939738;28;20087;-82
2023/12/04 15:53:00;;;;;;;0.40;0.40;;;;;;;;;;4946899;28;20047;-84
2023/12/04 15:59:16;;;;;;;0.20;0.10;;;;;;;;;;4933753;28;20048;-83
2023/12/04 16:02:01;;;;;;;0.20;0.10;;;;;;;;;;4923075;28;20483;-83
2023/12/04 16:04:50;;;;;;;0.20;0.10;;;;;;;;;;4936062;28;20039;-83